createdAt,value
2018-07-19T00:00:55.093Z,0
2018-07-19T00:01:55.372Z,0
2018-07-19T00:02:55.692Z,0
2018-07-19T00:03:57.342Z,0
2018-07-19T00:04:55.450Z,0
2018-07-19T00:05:55.481Z,0
2018-07-19T00:06:55.918Z,0
2018-07-19T00:07:55.839Z,0
2018-07-19T00:08:55.285Z,0
2018-07-19T00:09:56.585Z,0
2018-07-19T00:10:55.875Z,0
2018-07-19T00:11:55.639Z,0
2018-07-19T00:12:55.663Z,0
2018-07-19T00:13:56.755Z,0
2018-07-19T00:14:55.995Z,0
2018-07-19T00:15:56.047Z,0
2018-07-19T00:16:56.440Z,0
2018-07-19T00:17:56.748Z,0
2018-07-19T00:18:55.995Z,0
2018-07-19T00:19:56.140Z,0
2018-07-19T00:20:57.672Z,0
2018-07-19T00:21:55.897Z,0
2018-07-19T00:22:56.204Z,0
2018-07-19T00:23:56.235Z,0
2018-07-19T00:24:57.520Z,0
2018-07-19T00:25:56.270Z,0
2018-07-19T00:26:55.752Z,0
2018-07-19T00:27:57.108Z,0
2018-07-19T00:28:56.358Z,0
2018-07-19T00:29:56.378Z,0
2018-07-19T00:30:56.119Z,0
2018-07-19T00:31:57.341Z,0
2018-07-19T00:32:56.189Z,0
2018-07-19T00:33:56.503Z,0
2018-07-19T00:34:55.956Z,0
2018-07-19T00:35:57.381Z,0
2018-07-19T00:36:56.275Z,0
2018-07-19T00:37:56.301Z,0
2018-07-19T00:38:57.060Z,0
2018-07-19T00:39:56.831Z,0
2018-07-19T00:40:56.425Z,0
2018-07-19T00:41:56.695Z,0
2018-07-19T00:42:57.320Z,0
2018-07-19T00:43:56.459Z,0
2018-07-19T00:44:56.771Z,0
2018-07-19T00:45:56.788Z,0
2018-07-19T00:46:57.479Z,0
2018-07-19T00:47:56.846Z,0
2018-07-19T00:48:56.857Z,0
2018-07-19T00:49:56.617Z,0
2018-07-19T00:50:57.508Z,0
2018-07-19T00:51:56.666Z,0
2018-07-19T00:52:56.680Z,0
2018-07-19T00:53:57.089Z,0
2018-07-19T00:54:56.944Z,0
2018-07-19T00:55:56.771Z,0
2018-07-19T00:56:56.243Z,0
2018-07-19T00:57:56.855Z,0
2018-07-19T00:58:56.829Z,0
2018-07-19T00:59:56.584Z,0
2018-07-19T01:00:56.883Z,0
2018-07-19T01:01:58.553Z,0
2018-07-19T01:02:56.667Z,0
2018-07-19T01:03:57.229Z,0
2018-07-19T01:04:56.737Z,0
2018-07-19T01:05:57.900Z,0
2018-07-19T01:06:57.300Z,0
2018-07-19T01:07:57.322Z,0
2018-07-19T01:08:56.811Z,0
2018-07-19T01:09:57.332Z,0
2018-07-19T01:10:57.149Z,0
2018-07-19T01:11:57.168Z,0
2018-07-19T01:12:59.078Z,0
2018-07-19T01:13:56.938Z,0
2018-07-19T01:14:57.496Z,0
2018-07-19T01:15:59.216Z,0
2018-07-19T01:16:57.295Z,0
2018-07-19T01:17:57.041Z,0
2018-07-19T01:18:57.331Z,0
2018-07-19T01:19:58.646Z,0
2018-07-19T01:20:57.396Z,0
2018-07-19T01:21:57.131Z,0
2018-07-19T01:22:58.765Z,0
2018-07-19T01:23:57.183Z,0
2018-07-19T01:24:57.485Z,0
2018-07-19T01:25:59.268Z,0
2018-07-19T01:26:57.788Z,0
2018-07-19T01:27:57.292Z,0
2018-07-19T01:28:58.463Z,0
2018-07-19T01:29:58.528Z,0
2018-07-19T01:30:57.911Z,0
2018-07-19T01:31:57.924Z,0
2018-07-19T01:32:58.425Z,0
2018-07-19T01:33:57.431Z,0
2018-07-19T01:34:57.998Z,0
2018-07-19T01:35:58.044Z,0
2018-07-19T01:36:58.054Z,0
2018-07-19T01:37:59.075Z,0
2018-07-19T01:38:57.588Z,0
2018-07-19T01:39:58.118Z,0
2018-07-19T01:40:59.394Z,0
2018-07-19T01:41:58.184Z,0
2018-07-19T01:42:57.940Z,0
2018-07-19T01:43:58.212Z,0
2018-07-19T01:44:58.554Z,0
2018-07-19T01:45:57.457Z,0
2018-07-19T01:46:58.035Z,0
2018-07-19T01:48:00.031Z,0
2018-07-19T01:48:58.064Z,0
2018-07-19T01:49:58.134Z,0
2018-07-19T01:50:59.147Z,0
2018-07-19T01:51:58.298Z,0
2018-07-19T01:52:58.488Z,0
2018-07-19T01:53:58.522Z,0
2018-07-19T01:54:57.952Z,0
2018-07-19T01:55:58.522Z,0
2018-07-19T01:57:00.103Z,0
2018-07-19T01:57:58.568Z,0
2018-07-19T01:58:58.604Z,0
2018-07-19T02:00:00.591Z,0
2018-07-19T02:00:58.107Z,0
2018-07-19T02:01:58.424Z,0
2018-07-19T02:03:00.496Z,0
2018-07-19T02:03:58.712Z,0
2018-07-19T02:04:58.462Z,0
2018-07-19T02:05:59.013Z,0
2018-07-19T02:06:59.448Z,0
2018-07-19T02:07:58.818Z,0
2018-07-19T02:08:58.833Z,0
2018-07-19T02:10:00.452Z,0
2018-07-19T02:10:58.343Z,0
2018-07-19T02:11:58.630Z,0
2018-07-19T02:12:59.579Z,0
2018-07-19T02:13:58.684Z,0
2018-07-19T02:14:58.971Z,0
2018-07-19T02:16:00.560Z,0
2018-07-19T02:16:59.023Z,0
2018-07-19T02:17:58.814Z,0
2018-07-19T02:18:59.278Z,0
2018-07-19T02:19:58.837Z,0
2018-07-19T02:20:58.875Z,0
2018-07-19T02:21:58.878Z,0
2018-07-19T02:23:00.143Z,0
2018-07-19T02:23:58.924Z,0
2018-07-19T02:24:58.967Z,0
2018-07-19T02:26:00.015Z,0
2018-07-19T02:26:58.743Z,0
2018-07-19T02:27:59.036Z,0
2018-07-19T02:28:59.048Z,0
2018-07-19T02:29:58.804Z,0
2018-07-19T02:30:59.416Z,0
2018-07-19T02:31:59.665Z,0
2018-07-19T02:32:59.425Z,0
2018-07-19T02:33:59.428Z,0
2018-07-19T02:35:01.189Z,0
2018-07-19T02:35:59.541Z,0
2018-07-19T02:36:59.253Z,0
2018-07-19T02:38:01.323Z,0
2018-07-19T02:38:59.019Z,0
2018-07-19T02:39:59.310Z,0
2018-07-19T02:41:00.023Z,0
2018-07-19T02:42:00.141Z,0
2018-07-19T02:42:59.388Z,0
2018-07-19T02:43:59.659Z,0
2018-07-19T02:45:01.484Z,0
2018-07-19T02:45:59.728Z,0
2018-07-19T02:46:59.758Z,0
2018-07-19T02:48:00.668Z,0
2018-07-19T02:49:00.496Z,0
2018-07-19T02:49:59.543Z,0
2018-07-19T02:51:00.645Z,0
2018-07-19T02:51:59.822Z,0
2018-07-19T02:52:59.360Z,0
2018-07-19T02:54:01.111Z,0
2018-07-19T02:54:59.399Z,4
2018-07-19T02:55:59.972Z,4
2018-07-19T02:57:00.473Z,4
2018-07-19T02:58:01.447Z,4
2018-07-19T02:59:01.396Z,0
2018-07-19T03:00:00.745Z,4
2018-07-19T03:01:01.522Z,4
2018-07-19T03:02:01.198Z,4
2018-07-19T03:03:01.996Z,8
2018-07-19T03:04:00.002Z,8
2018-07-19T03:05:02.150Z,4
2018-07-19T03:06:00.670Z,8
2018-07-19T03:07:00.580Z,8
2018-07-19T03:08:02.262Z,8
2018-07-19T03:09:00.558Z,8
2018-07-19T03:10:01.085Z,12
2018-07-19T03:11:02.550Z,8
2018-07-19T03:12:01.421Z,12
2018-07-19T03:13:00.962Z,16
2018-07-19T03:14:01.371Z,12
2018-07-19T03:15:00.146Z,16
2018-07-19T03:16:00.173Z,16
2018-07-19T03:16:59.931Z,16
2018-07-19T03:18:01.776Z,20
2018-07-19T03:19:00.247Z,20
2018-07-19T03:20:01.742Z,24
2018-07-19T03:21:02.416Z,24
2018-07-19T03:22:01.325Z,28
2018-07-19T03:23:01.184Z,28
2018-07-19T03:24:02.673Z,32
2018-07-19T03:25:00.552Z,32
2018-07-19T03:26:00.718Z,32
2018-07-19T03:27:01.605Z,36
2018-07-19T03:28:00.471Z,40
2018-07-19T03:29:00.781Z,40
2018-07-19T03:30:00.788Z,40
2018-07-19T03:31:02.431Z,48
2018-07-19T03:32:00.033Z,48
2018-07-19T03:33:00.838Z,52
2018-07-19T03:34:02.468Z,56
2018-07-19T03:35:00.888Z,56
2018-07-19T03:36:00.920Z,60
2018-07-19T03:37:01.721Z,60
2018-07-19T03:38:00.432Z,64
2018-07-19T03:39:01.015Z,68
2018-07-19T03:40:02.658Z,72
2018-07-19T03:41:00.808Z,76
2018-07-19T03:42:01.058Z,80
2018-07-19T03:43:01.775Z,84
2018-07-19T03:44:01.121Z,88
2018-07-19T03:45:01.149Z,88
2018-07-19T03:46:02.771Z,92
2018-07-19T03:47:01.227Z,92
2018-07-19T03:48:00.669Z,96
2018-07-19T03:49:02.228Z,100
2018-07-19T03:50:00.708Z,104
2018-07-19T03:51:01.289Z,104
2018-07-19T03:52:01.336Z,112
2018-07-19T03:53:02.781Z,112
2018-07-19T03:54:01.355Z,116
2018-07-19T03:55:00.836Z,120
2018-07-19T03:56:00.580Z,124
2018-07-19T03:57:01.156Z,124
2018-07-19T03:58:01.168Z,128
2018-07-19T03:59:02.992Z,132
2018-07-19T04:00:00.938Z,132
2018-07-19T04:01:00.980Z,136
2018-07-19T04:02:03.352Z,136
2018-07-19T04:03:01.401Z,144
2018-07-19T04:04:01.579Z,144
2018-07-19T04:05:03.154Z,144
2018-07-19T04:06:01.636Z,152
2018-07-19T04:07:01.373Z,152
2018-07-19T04:08:01.400Z,152
2018-07-19T04:09:02.188Z,156
2018-07-19T04:10:01.719Z,156
2018-07-19T04:11:01.745Z,160
2018-07-19T04:12:02.560Z,164
2018-07-19T04:13:01.787Z,164
2018-07-19T04:14:01.820Z,168
2018-07-19T04:15:02.378Z,168
2018-07-19T04:16:03.435Z,172
2018-07-19T04:17:02.632Z,172
2018-07-19T04:18:02.607Z,176
2018-07-19T04:19:04.706Z,180
2018-07-19T04:20:02.612Z,180
2018-07-19T04:21:02.283Z,184
2018-07-19T04:22:03.784Z,184
2018-07-19T04:23:02.331Z,188
2018-07-19T04:24:02.259Z,188
2018-07-19T04:25:03.809Z,192
2018-07-19T04:26:04.622Z,188
2018-07-19T04:27:02.286Z,192
2018-07-19T04:28:03.103Z,192
2018-07-19T04:29:04.707Z,196
2018-07-19T04:30:02.372Z,200
2018-07-19T04:31:03.119Z,200
2018-07-19T04:32:02.514Z,204
2018-07-19T04:33:03.747Z,204
2018-07-19T04:34:03.333Z,204
2018-07-19T04:35:02.398Z,208
2018-07-19T04:36:03.000Z,208
2018-07-19T04:37:02.085Z,212
2018-07-19T04:38:01.563Z,212
2018-07-19T04:39:02.400Z,212
2018-07-19T04:40:02.842Z,216
2018-07-19T04:41:02.458Z,216
2018-07-19T04:42:01.929Z,220
2018-07-19T04:43:03.837Z,220
2018-07-19T04:44:02.508Z,224
2018-07-19T04:45:02.267Z,224
2018-07-19T04:46:02.289Z,224
2018-07-19T04:47:03.682Z,224
2018-07-19T04:48:02.613Z,228
2018-07-19T04:49:02.366Z,228
2018-07-19T04:50:02.692Z,228
2018-07-19T04:51:02.700Z,232
2018-07-19T04:52:02.454Z,232
2018-07-19T04:53:04.012Z,236
2018-07-19T04:54:02.763Z,232
2018-07-19T04:55:02.257Z,236
2018-07-19T04:56:01.978Z,236
2018-07-19T04:57:03.519Z,240
2018-07-19T04:58:02.850Z,244
2018-07-19T04:59:02.587Z,240
2018-07-19T05:00:03.650Z,244
2018-07-19T05:01:02.366Z,244
2018-07-19T05:02:02.875Z,248
2018-07-19T05:03:03.022Z,244
2018-07-19T05:04:02.702Z,248
2018-07-19T05:05:02.724Z,248
2018-07-19T05:06:02.748Z,248
2018-07-19T05:07:03.763Z,252
2018-07-19T05:08:02.825Z,252
2018-07-19T05:09:02.812Z,252
2018-07-19T05:10:03.992Z,252
2018-07-19T05:11:02.615Z,256
2018-07-19T05:12:02.623Z,256
2018-07-19T05:13:02.650Z,256
2018-07-19T05:14:04.306Z,260
2018-07-19T05:15:03.525Z,256
2018-07-19T05:16:03.586Z,260
2018-07-19T05:17:03.954Z,264
2018-07-19T05:18:03.291Z,260
2018-07-19T05:19:03.315Z,264
2018-07-19T05:20:03.115Z,264
2018-07-19T05:21:04.055Z,264
2018-07-19T05:22:03.139Z,264
2018-07-19T05:23:03.465Z,264
2018-07-19T05:24:03.430Z,268
2018-07-19T05:25:05.257Z,268
2018-07-19T05:26:03.481Z,268
2018-07-19T05:27:03.571Z,272
2018-07-19T05:28:04.348Z,268
2018-07-19T05:29:03.588Z,272
2018-07-19T05:30:03.042Z,276
2018-07-19T05:31:04.354Z,280
2018-07-19T05:32:03.620Z,276
2018-07-19T05:33:03.406Z,280
2018-07-19T05:34:03.437Z,280
2018-07-19T05:35:04.267Z,280
2018-07-19T05:36:03.461Z,284
2018-07-19T05:37:03.509Z,284
2018-07-19T05:38:04.132Z,288
2018-07-19T05:39:03.546Z,284
2018-07-19T05:40:03.815Z,288
2018-07-19T05:41:03.559Z,288
2018-07-19T05:42:03.115Z,292
2018-07-19T05:43:03.619Z,292
2018-07-19T05:44:03.939Z,292
2018-07-19T05:45:03.642Z,296
2018-07-19T05:46:03.976Z,296
2018-07-19T05:47:03.957Z,296
2018-07-19T05:48:03.470Z,300
2018-07-19T05:49:04.647Z,300
2018-07-19T05:50:04.715Z,304
2018-07-19T05:51:03.803Z,304
2018-07-19T05:52:03.870Z,304
2018-07-19T05:53:04.034Z,308
2018-07-19T05:54:04.192Z,308
2018-07-19T05:55:04.158Z,308
2018-07-19T05:56:05.295Z,308
2018-07-19T05:57:04.244Z,308
2018-07-19T05:58:03.680Z,312
2018-07-19T05:59:03.968Z,312
2018-07-19T06:00:03.448Z,312
2018-07-19T06:01:04.266Z,308
2018-07-19T06:02:04.343Z,312
2018-07-19T06:03:05.218Z,312
2018-07-19T06:04:04.133Z,312
2018-07-19T06:05:04.104Z,312
2018-07-19T06:06:05.642Z,312
2018-07-19T06:07:04.151Z,316
2018-07-19T06:08:04.183Z,312
2018-07-19T06:09:05.122Z,316
2018-07-19T06:10:04.489Z,316
2018-07-19T06:11:04.509Z,316
2018-07-19T06:12:04.274Z,320
2018-07-19T06:13:04.610Z,316
2018-07-19T06:14:04.042Z,320
2018-07-19T06:15:04.349Z,320
2018-07-19T06:16:04.437Z,320
2018-07-19T06:17:05.986Z,324
2018-07-19T06:18:04.418Z,320
2018-07-19T06:19:04.437Z,320
2018-07-19T06:20:04.762Z,328
2018-07-19T06:21:04.742Z,324
2018-07-19T06:22:04.783Z,324
2018-07-19T06:23:04.795Z,328
2018-07-19T06:24:05.580Z,324
2018-07-19T06:25:04.310Z,324
2018-07-19T06:26:04.320Z,328
2018-07-19T06:27:04.621Z,328
2018-07-19T06:28:04.936Z,332
2018-07-19T06:29:04.681Z,328
2018-07-19T06:30:04.980Z,332
2018-07-19T06:31:04.702Z,336
2018-07-19T06:32:04.749Z,336
2018-07-19T06:33:05.031Z,336
2018-07-19T06:34:05.073Z,336
2018-07-19T06:35:05.929Z,336
2018-07-19T06:36:04.852Z,340
2018-07-19T06:37:04.862Z,340
2018-07-19T06:38:06.162Z,340
2018-07-19T06:39:04.904Z,344
2018-07-19T06:40:04.945Z,344
2018-07-19T06:41:06.282Z,344
2018-07-19T06:42:04.976Z,344
2018-07-19T06:43:04.980Z,344
2018-07-19T06:44:05.872Z,344
2018-07-19T06:45:05.320Z,348
2018-07-19T06:46:05.319Z,348
2018-07-19T06:47:05.409Z,348
2018-07-19T06:48:05.583Z,348
2018-07-19T06:49:05.385Z,348
2018-07-19T06:50:05.146Z,348
2018-07-19T06:51:04.897Z,352
2018-07-19T06:52:05.508Z,352
2018-07-19T06:53:04.933Z,348
2018-07-19T06:54:06.258Z,352
2018-07-19T06:55:05.543Z,356
2018-07-19T06:56:05.025Z,356
2018-07-19T06:57:06.297Z,356
2018-07-19T06:58:05.579Z,356
2018-07-19T06:59:05.615Z,356
2018-07-19T07:00:06.238Z,356
2018-07-19T07:01:05.395Z,360
2018-07-19T07:02:05.168Z,364
2018-07-19T07:03:06.741Z,360
2018-07-19T07:04:05.498Z,364
2018-07-19T07:05:05.765Z,368
2018-07-19T07:06:05.769Z,368
2018-07-19T07:07:06.039Z,368
2018-07-19T07:08:05.559Z,372
2018-07-19T07:09:06.311Z,372
2018-07-19T07:10:07.258Z,372
2018-07-19T07:11:05.618Z,372
2018-07-19T07:12:05.789Z,376
2018-07-19T07:13:06.779Z,376
2018-07-19T07:14:05.444Z,376
2018-07-19T07:15:06.421Z,380
2018-07-19T07:16:07.523Z,380
2018-07-19T07:17:05.780Z,384
2018-07-19T07:18:06.098Z,384
2018-07-19T07:19:07.739Z,388
2018-07-19T07:20:05.845Z,384
2018-07-19T07:21:05.888Z,388
2018-07-19T07:22:07.018Z,388
2018-07-19T07:23:06.197Z,388
2018-07-19T07:24:05.944Z,388
2018-07-19T07:25:07.367Z,392
2018-07-19T07:26:06.232Z,388
2018-07-19T07:27:05.999Z,392
2018-07-19T07:28:06.030Z,388
2018-07-19T07:29:06.063Z,392
2018-07-19T07:30:06.329Z,396
2018-07-19T07:31:05.822Z,392
2018-07-19T07:32:07.057Z,392
2018-07-19T07:33:06.131Z,400
2018-07-19T07:34:06.677Z,400
2018-07-19T07:35:06.469Z,408
2018-07-19T07:36:05.700Z,416
2018-07-19T07:37:05.953Z,424
2018-07-19T07:38:07.205Z,420
2018-07-19T07:39:06.597Z,420
2018-07-19T07:40:06.595Z,424
2018-07-19T07:41:06.330Z,424
2018-07-19T07:42:06.385Z,424
2018-07-19T07:43:06.158Z,428
2018-07-19T07:44:07.117Z,432
2018-07-19T07:45:06.424Z,440
2018-07-19T07:46:06.479Z,444
2018-07-19T07:47:07.590Z,448
2018-07-19T07:48:06.498Z,456
2018-07-19T07:49:06.534Z,456
2018-07-19T07:50:07.694Z,460
2018-07-19T07:51:06.838Z,460
2018-07-19T07:52:06.306Z,472
2018-07-19T07:53:06.910Z,480
2018-07-19T07:54:06.994Z,480
2018-07-19T07:55:06.653Z,488
2018-07-19T07:56:06.726Z,492
2018-07-19T07:57:07.123Z,496
2018-07-19T07:58:06.716Z,500
2018-07-19T07:59:06.471Z,508
2018-07-19T08:00:07.697Z,516
2018-07-19T08:01:06.799Z,520
2018-07-19T08:02:07.082Z,528
2018-07-19T08:03:06.638Z,532
2018-07-19T08:04:07.189Z,536
2018-07-19T08:05:06.903Z,540
2018-07-19T08:06:06.790Z,552
2018-07-19T08:07:08.806Z,556
2018-07-19T08:08:06.759Z,564
2018-07-19T08:09:07.217Z,564
2018-07-19T08:10:08.204Z,564
2018-07-19T08:11:07.310Z,572
2018-07-19T08:12:07.072Z,580
2018-07-19T08:13:08.600Z,588
2018-07-19T08:14:06.576Z,592
2018-07-19T08:15:08.336Z,600
2018-07-19T08:16:06.914Z,612
2018-07-19T08:17:07.461Z,616
2018-07-19T08:18:07.351Z,612
2018-07-19T08:19:09.292Z,616
2018-07-19T08:20:07.626Z,628
2018-07-19T08:21:07.550Z,632
2018-07-19T08:22:08.320Z,644
2018-07-19T08:23:07.718Z,652
2018-07-19T08:24:07.337Z,664
2018-07-19T08:25:08.730Z,676
2018-07-19T08:26:07.409Z,684
2018-07-19T08:27:07.426Z,696
2018-07-19T08:28:08.799Z,704
2018-07-19T08:29:07.718Z,684
2018-07-19T08:30:07.496Z,732
2018-07-19T08:31:07.876Z,828
2018-07-19T08:32:09.045Z,612
2018-07-19T08:33:07.839Z,740
2018-07-19T08:34:08.057Z,536
2018-07-19T08:35:09.435Z,584
2018-07-19T08:36:08.169Z,648
2018-07-19T08:37:07.663Z,904
2018-07-19T08:38:08.633Z,1364
2018-07-19T08:39:07.440Z,2060
2018-07-19T08:40:07.749Z,1324
2018-07-19T08:41:09.653Z,892
2018-07-19T08:42:08.081Z,888
2018-07-19T08:43:08.148Z,1128
2018-07-19T08:44:09.616Z,1420
2018-07-19T08:45:08.000Z,1680
2018-07-19T08:46:07.889Z,1560
2018-07-19T08:47:08.817Z,1360
2018-07-19T08:48:08.219Z,1636
2018-07-19T08:49:07.711Z,1460
2018-07-19T08:50:08.686Z,1080
2018-07-19T08:51:07.754Z,908
2018-07-19T08:52:07.762Z,720
2018-07-19T08:53:08.675Z,640
2018-07-19T08:54:08.489Z,1268
2018-07-19T08:55:08.386Z,1940
2018-07-19T08:56:07.978Z,2080
2018-07-19T08:57:08.379Z,2060
2018-07-19T08:58:08.521Z,1616
2018-07-19T08:59:08.229Z,1220
2018-07-19T09:00:09.075Z,1124
2018-07-19T09:01:08.090Z,840
2018-07-19T09:02:08.284Z,756
2018-07-19T09:03:09.643Z,668
2018-07-19T09:04:08.605Z,984
2018-07-19T09:05:08.385Z,768
2018-07-19T09:06:09.700Z,1056
2018-07-19T09:07:08.462Z,632
2018-07-19T09:08:08.725Z,608
2018-07-19T09:09:08.473Z,624
2018-07-19T09:10:09.149Z,932
2018-07-19T09:11:08.245Z,1572
2018-07-19T09:12:08.551Z,1992
2018-07-19T09:13:08.955Z,1772
2018-07-19T09:14:08.846Z,2072
2018-07-19T09:15:08.643Z,2076
2018-07-19T09:16:08.374Z,2116
2018-07-19T09:17:09.858Z,2256
2018-07-19T09:18:08.977Z,2252
2018-07-19T09:19:08.468Z,2000
2018-07-19T09:20:09.992Z,1808
2018-07-19T09:21:08.778Z,2060
2018-07-19T09:22:08.793Z,2712
2018-07-19T09:23:08.826Z,1728
2018-07-19T09:24:10.923Z,1488
2018-07-19T09:25:08.876Z,1460
2018-07-19T09:26:08.924Z,1296
2018-07-19T09:27:09.131Z,1172
2018-07-19T09:28:08.703Z,1376
2018-07-19T09:29:08.903Z,1140
2018-07-19T09:30:09.787Z,1152
2018-07-19T09:31:09.279Z,1528
2018-07-19T09:32:08.785Z,1828
2018-07-19T09:33:09.088Z,2064
2018-07-19T09:34:09.196Z,2656
2018-07-19T09:35:09.187Z,2560
2018-07-19T09:36:09.441Z,1560
2018-07-19T09:37:10.619Z,1264
2018-07-19T09:38:09.256Z,988
2018-07-19T09:39:08.703Z,888
2018-07-19T09:40:09.273Z,884
2018-07-19T09:41:11.132Z,1188
2018-07-19T09:42:09.477Z,1452
2018-07-19T09:43:09.081Z,1568
2018-07-19T09:44:10.983Z,2112
2018-07-19T09:45:09.466Z,2076
2018-07-19T09:46:09.166Z,2220
2018-07-19T09:47:10.243Z,2264
2018-07-19T09:48:09.216Z,2140
2018-07-19T09:49:09.239Z,1808
2018-07-19T09:50:10.044Z,1580
2018-07-19T09:51:10.390Z,1596
2018-07-19T09:52:09.850Z,1488
2018-07-19T09:53:09.975Z,1436
2018-07-19T09:54:10.248Z,1624
2018-07-19T09:55:09.683Z,2472
2018-07-19T09:56:09.155Z,3192
2018-07-19T09:57:10.006Z,3360
2018-07-19T09:58:10.889Z,3380
2018-07-19T09:59:10.054Z,3080
2018-07-19T10:00:10.116Z,2508
2018-07-19T10:01:11.056Z,2016
2018-07-19T10:02:09.595Z,1124
2018-07-19T10:03:09.630Z,1152
2018-07-19T10:04:09.935Z,1384
2018-07-19T10:05:10.340Z,1912
2018-07-19T10:06:10.046Z,1488
2018-07-19T10:07:10.011Z,1060
2018-07-19T10:08:11.901Z,1688
2018-07-19T10:09:09.824Z,1556
2018-07-19T10:10:10.616Z,1540
2018-07-19T10:11:10.390Z,1768
2018-07-19T10:12:11.360Z,1980
2018-07-19T10:13:10.170Z,2292
2018-07-19T10:14:10.203Z,2836
2018-07-19T10:15:10.821Z,3416
2018-07-19T10:16:09.970Z,3352
2018-07-19T10:17:09.733Z,3444
2018-07-19T10:18:10.302Z,3616
2018-07-19T10:19:12.140Z,3500
2018-07-19T10:20:10.095Z,3096
2018-07-19T10:21:10.388Z,1996
2018-07-19T10:22:10.417Z,2056
2018-07-19T10:23:10.758Z,1500
2018-07-19T10:24:10.744Z,1944
2018-07-19T10:25:10.773Z,1836
2018-07-19T10:26:11.701Z,1800
2018-07-19T10:27:10.299Z,1800
2018-07-19T10:28:10.579Z,1804
2018-07-19T10:29:10.891Z,1992
2018-07-19T10:30:12.291Z,2776
2018-07-19T10:31:10.414Z,3092
2018-07-19T10:32:11.801Z,3208
2018-07-19T10:33:10.719Z,3140
2018-07-19T10:34:11.235Z,2468
2018-07-19T10:35:10.795Z,2316
2018-07-19T10:36:10.551Z,1896
2018-07-19T10:37:12.287Z,1404
2018-07-19T10:38:11.153Z,1020
2018-07-19T10:39:10.640Z,972
2018-07-19T10:40:10.944Z,1116
2018-07-19T10:41:12.763Z,1888
2018-07-19T10:42:10.987Z,1868
2018-07-19T10:43:11.284Z,1876
2018-07-19T10:44:11.642Z,1916
2018-07-19T10:45:12.228Z,2080
2018-07-19T10:46:11.347Z,2692
2018-07-19T10:47:11.144Z,3616
2018-07-19T10:48:11.149Z,4056
2018-07-19T10:49:11.454Z,4212
2018-07-19T10:50:11.237Z,4364
2018-07-19T10:51:11.489Z,3752
2018-07-19T10:52:11.580Z,3784
2018-07-19T10:53:11.553Z,2364
2018-07-19T10:54:10.793Z,1972
2018-07-19T10:55:11.350Z,1448
2018-07-19T10:56:11.637Z,1224
2018-07-19T10:57:11.404Z,2072
2018-07-19T10:58:11.437Z,2224
2018-07-19T10:59:11.465Z,2288
2018-07-19T11:00:11.492Z,2420
2018-07-19T11:01:11.778Z,2612
2018-07-19T11:02:11.810Z,2952
2018-07-19T11:03:11.847Z,3336
2018-07-19T11:04:11.611Z,3724
2018-07-19T11:05:11.376Z,3756
2018-07-19T11:06:11.420Z,3248
2018-07-19T11:07:11.700Z,2808
2018-07-19T11:08:11.735Z,2636
2018-07-19T11:09:12.059Z,2080
2018-07-19T11:10:12.232Z,1396
2018-07-19T11:11:12.078Z,2216
2018-07-19T11:12:11.855Z,1460
2018-07-19T11:13:11.357Z,2312
2018-07-19T11:14:11.947Z,2412
2018-07-19T11:15:12.245Z,2596
2018-07-19T11:16:12.230Z,2844
2018-07-19T11:17:11.483Z,3364
2018-07-19T11:18:12.393Z,4256
2018-07-19T11:19:12.061Z,4584
2018-07-19T11:20:11.573Z,4292
2018-07-19T11:21:12.431Z,2608
2018-07-19T11:22:12.154Z,1972
2018-07-19T11:23:12.493Z,1748
2018-07-19T11:24:12.001Z,2840
2018-07-19T11:25:12.247Z,3080
2018-07-19T11:26:12.272Z,3148
2018-07-19T11:27:12.575Z,3204
2018-07-19T11:28:12.344Z,3304
2018-07-19T11:29:12.367Z,3400
2018-07-19T11:30:12.659Z,2624
2018-07-19T11:31:12.697Z,2724
2018-07-19T11:32:12.729Z,3036
2018-07-19T11:33:12.234Z,3076
2018-07-19T11:34:12.263Z,2880
2018-07-19T11:35:12.075Z,2916
2018-07-19T11:36:12.856Z,3040
2018-07-19T11:37:12.615Z,3492
2018-07-19T11:38:12.641Z,4240
2018-07-19T11:39:12.939Z,5204
2018-07-19T11:40:12.452Z,5400
2018-07-19T11:41:12.476Z,5044
2018-07-19T11:42:13.034Z,3860
2018-07-19T11:43:13.117Z,3492
2018-07-19T11:44:13.091Z,3288
2018-07-19T11:45:12.872Z,2916
2018-07-19T11:46:13.156Z,2352
2018-07-19T11:47:12.924Z,1896
2018-07-19T11:48:12.701Z,1708
2018-07-19T11:49:13.263Z,3168
2018-07-19T11:50:13.326Z,3212
2018-07-19T11:51:13.320Z,3344
2018-07-19T11:52:13.096Z,3496
2018-07-19T11:53:12.856Z,3844
2018-07-19T11:54:13.163Z,4436
2018-07-19T11:55:13.451Z,5064
2018-07-19T11:56:12.959Z,4960
2018-07-19T11:57:13.500Z,4852
2018-07-19T11:58:13.536Z,4616
2018-07-19T11:59:13.577Z,4340
2018-07-19T12:00:13.347Z,4056
2018-07-19T12:01:13.631Z,3828
2018-07-19T12:02:13.671Z,3516
2018-07-19T12:03:13.696Z,3452
2018-07-19T12:04:13.733Z,3480
2018-07-19T12:05:13.762Z,3688
2018-07-19T12:06:13.797Z,4104
2018-07-19T12:07:13.305Z,4572
2018-07-19T12:08:13.341Z,4816
2018-07-19T12:09:13.644Z,5000
2018-07-19T12:10:13.671Z,5000
2018-07-19T12:11:13.174Z,3956
2018-07-19T12:12:13.467Z,3568
2018-07-19T12:13:13.512Z,3800
2018-07-19T12:14:13.803Z,3696
2018-07-19T12:15:13.832Z,3432
2018-07-19T12:16:14.126Z,3232
2018-07-19T12:17:14.155Z,2832
2018-07-19T12:18:14.445Z,2216
2018-07-19T12:19:14.224Z,1988
2018-07-19T12:20:14.253Z,2004
2018-07-19T12:21:14.286Z,2536
2018-07-19T12:22:14.075Z,4472
2018-07-19T12:23:14.362Z,5216
2018-07-19T12:24:14.134Z,6088
2018-07-19T12:25:14.430Z,6324
2018-07-19T12:26:14.194Z,5948
2018-07-19T12:27:14.518Z,5012
2018-07-19T12:28:14.259Z,3220
2018-07-19T12:29:14.310Z,4108
2018-07-19T12:30:14.584Z,4592
2018-07-19T12:31:14.782Z,3060
2018-07-19T12:32:14.403Z,3888
2018-07-19T12:33:14.686Z,2328
2018-07-19T12:34:14.199Z,3960
2018-07-19T12:35:14.493Z,3872
2018-07-19T12:36:14.806Z,3876
2018-07-19T12:37:14.303Z,3956
2018-07-19T12:38:14.593Z,3996
2018-07-19T12:39:14.622Z,4044
2018-07-19T12:40:14.409Z,4116
2018-07-19T12:41:14.690Z,4288
2018-07-19T12:42:14.721Z,4516
2018-07-19T12:43:15.028Z,4604
2018-07-19T12:44:14.531Z,4612
2018-07-19T12:45:14.824Z,4528
2018-07-19T12:46:15.140Z,4624
2018-07-19T12:47:15.150Z,4624
2018-07-19T12:48:14.938Z,4428
2018-07-19T12:49:15.227Z,2252
2018-07-19T12:50:14.471Z,2304
2018-07-19T12:51:15.029Z,4080
2018-07-19T12:52:15.551Z,4056
2018-07-19T12:53:15.385Z,4100
2018-07-19T12:54:15.396Z,3964
2018-07-19T12:55:15.419Z,3860
2018-07-19T12:56:15.463Z,3800
2018-07-19T12:57:15.493Z,3828
2018-07-19T12:58:15.264Z,3896
2018-07-19T12:59:15.043Z,3952
2018-07-19T13:00:15.161Z,3980
2018-07-19T13:01:15.368Z,3984
2018-07-19T13:02:15.668Z,4008
2018-07-19T13:03:15.706Z,3848
2018-07-19T13:04:15.205Z,4140
2018-07-19T13:05:15.806Z,4664
2018-07-19T13:06:15.796Z,5068
2018-07-19T13:07:15.837Z,5620
2018-07-19T13:08:15.865Z,5680
2018-07-19T13:09:15.900Z,5056
2018-07-19T13:10:15.941Z,4336
2018-07-19T13:11:15.977Z,3540
2018-07-19T13:12:16.013Z,2896
2018-07-19T13:13:16.032Z,2952
2018-07-19T13:14:15.814Z,3000
2018-07-19T13:15:16.338Z,2812
2018-07-19T13:16:16.141Z,2708
2018-07-19T13:17:16.176Z,3032
2018-07-19T13:18:15.954Z,3952
2018-07-19T13:19:16.251Z,3880
2018-07-19T13:20:16.023Z,3836
2018-07-19T13:21:16.318Z,3936
2018-07-19T13:22:15.953Z,4100
2018-07-19T13:23:16.389Z,4228
2018-07-19T13:24:16.540Z,4396
2018-07-19T13:25:15.933Z,4564
2018-07-19T13:26:16.227Z,4652
2018-07-19T13:27:16.522Z,4692
2018-07-19T13:28:16.308Z,4676
2018-07-19T13:29:16.602Z,4596
2018-07-19T13:30:16.366Z,4540
2018-07-19T13:31:16.408Z,4524
2018-07-19T13:32:16.442Z,4532
2018-07-19T13:33:16.740Z,4664
2018-07-19T13:34:16.788Z,4736
2018-07-19T13:35:16.800Z,4776
2018-07-19T13:36:16.592Z,4800
2018-07-19T13:37:16.354Z,4784
2018-07-19T13:38:16.906Z,4940
2018-07-19T13:39:16.974Z,5168
2018-07-19T13:40:16.483Z,5456
2018-07-19T13:41:16.756Z,5600
2018-07-19T13:42:17.058Z,5688
2018-07-19T13:43:16.558Z,5304
2018-07-19T13:44:16.860Z,5000
2018-07-19T13:45:16.632Z,5196
2018-07-19T13:46:17.193Z,5520
2018-07-19T13:47:16.699Z,5896
2018-07-19T13:48:16.737Z,5780
2018-07-19T13:49:16.773Z,5252
2018-07-19T13:50:17.070Z,4640
2018-07-19T13:51:17.108Z,4520